Grandview, Missouri
Current Conditions -  °F | °C
As of 8:53 AM on Saturday 20 Dec 2014 (Local Time) from KLXT Reporting Station
Overcast Overcast  
Wind Chill: 25°   Ceiling: 900
Heat Index: 34°   Visibility: 10mi
Dew Point: 31°   Wind: 12mph
Humidity: 89%   Direction: 190°S
Pressure: 30.19"   Gusts: NA
Location:  38.89°N, 94.53°W
Report Text: KLXT 201453Z AUTO 19010KT 10SM OVC009 01/M01 A3019 RMK AO2 SLP234 T00111006 50000 TSNO
Loading
Personal Weather Stations






























Interactive Weather Map New forecast layout! Learn more

10-Day Weather Forecast

Advertisements
Track Severe Weather on mobile